sensor_id;sensor_type;location;lat;lon;timestamp;P1;durP1;ratioP1;P2;durP2;ratioP2
77495;SDS011;66600;48.378;9.948;2023-07-09T00:00:50;6.53;;;3.75;;
77495;SDS011;66600;48.378;9.948;2023-07-09T00:03:16;10.20;;;4.38;;
77495;SDS011;66600;48.378;9.948;2023-07-09T00:05:43;8.85;;;3.92;;
77495;SDS011;66600;48.378;9.948;2023-07-09T00:11:11;4.88;;;3.63;;
77495;SDS011;66600;48.378;9.948;2023-07-09T00:13:37;8.07;;;3.97;;
77495;SDS011;66600;48.378;9.948;2023-07-09T00:16:06;6.65;;;3.58;;
77495;SDS011;66600;48.378;9.948;2023-07-09T00:18:37;7.50;;;4.03;;
77495;SDS011;66600;48.378;9.948;2023-07-09T00:21:03;7.63;;;4.20;;
77495;SDS011;66600;48.378;9.948;2023-07-09T00:23:28;7.35;;;3.72;;
77495;SDS011;66600;48.378;9.948;2023-07-09T00:25:54;11.60;;;4.55;;
77495;SDS011;66600;48.378;9.948;2023-07-09T00:28:20;6.85;;;4.30;;
77495;SDS011;66600;48.378;9.948;2023-07-09T00:30:46;7.25;;;4.22;;
77495;SDS011;66600;48.378;9.948;2023-07-09T00:33:13;7.50;;;4.50;;
77495;SDS011;66600;48.378;9.948;2023-07-09T00:35:40;9.13;;;4.57;;
77495;SDS011;66600;48.378;9.948;2023-07-09T00:38:21;12.23;;;4.45;;
77495;SDS011;66600;48.378;9.948;2023-07-09T00:41:02;8.77;;;4.65;;
77495;SDS011;66600;48.378;9.948;2023-07-09T00:43:30;12.43;;;5.03;;
77495;SDS011;66600;48.378;9.948;2023-07-09T00:48:43;8.07;;;4.70;;
77495;SDS011;66600;48.378;9.948;2023-07-09T00:51:13;9.65;;;4.75;;
77495;SDS011;66600;48.378;9.948;2023-07-09T00:53:41;7.97;;;4.97;;
77495;SDS011;66600;48.378;9.948;2023-07-09T00:56:14;9.45;;;5.10;;
77495;SDS011;66600;48.378;9.948;2023-07-09T00:58:49;9.52;;;5.45;;
77495;SDS011;66600;48.378;9.948;2023-07-09T01:01:16;9.00;;;5.07;;
77495;SDS011;66600;48.378;9.948;2023-07-09T01:03:53;10.15;;;5.72;;
77495;SDS011;66600;48.378;9.948;2023-07-09T01:06:26;7.65;;;5.05;;
77495;SDS011;66600;48.378;9.948;2023-07-09T01:08:57;8.82;;;5.00;;
77495;SDS011;66600;48.378;9.948;2023-07-09T01:11:24;9.18;;;5.38;;
77495;SDS011;66600;48.378;9.948;2023-07-09T01:13:54;9.57;;;5.03;;
77495;SDS011;66600;48.378;9.948;2023-07-09T01:16:22;8.57;;;5.07;;
77495;SDS011;66600;48.378;9.948;2023-07-09T01:18:50;14.35;;;4.80;;
77495;SDS011;66600;48.378;9.948;2023-07-09T01:21:16;9.48;;;4.60;;
77495;SDS011;66600;48.378;9.948;2023-07-09T01:23:46;8.35;;;4.68;;
77495;SDS011;66600;48.378;9.948;2023-07-09T01:26:25;8.75;;;5.28;;
77495;SDS011;66600;48.378;9.948;2023-07-09T01:28:52;7.88;;;4.22;;
77495;SDS011;66600;48.378;9.948;2023-07-09T01:31:19;8.40;;;4.57;;
77495;SDS011;66600;48.378;9.948;2023-07-09T01:33:45;8.68;;;4.38;;
77495;SDS011;66600;48.378;9.948;2023-07-09T01:36:12;10.02;;;4.97;;
77495;SDS011;66600;48.378;9.948;2023-07-09T01:38:40;7.25;;;4.57;;
77495;SDS011;66600;48.378;9.948;2023-07-09T01:41:06;8.90;;;4.88;;
77495;SDS011;66600;48.378;9.948;2023-07-09T01:43:32;7.13;;;4.85;;
77495;SDS011;66600;48.378;9.948;2023-07-09T01:45:59;10.02;;;5.63;;
77495;SDS011;66600;48.378;9.948;2023-07-09T01:48:25;10.05;;;5.45;;
77495;SDS011;66600;48.378;9.948;2023-07-09T01:50:51;11.60;;;5.30;;
77495;SDS011;66600;48.378;9.948;2023-07-09T01:53:19;10.75;;;5.97;;
77495;SDS011;66600;48.378;9.948;2023-07-09T01:55:48;10.38;;;5.75;;
77495;SDS011;66600;48.378;9.948;2023-07-09T01:58:14;12.77;;;6.30;;
77495;SDS011;66600;48.378;9.948;2023-07-09T02:00:41;11.63;;;6.20;;
77495;SDS011;66600;48.378;9.948;2023-07-09T02:03:06;10.40;;;6.15;;
77495;SDS011;66600;48.378;9.948;2023-07-09T02:05:34;9.15;;;5.88;;
77495;SDS011;66600;48.378;9.948;2023-07-09T02:08:00;14.35;;;7.10;;
77495;SDS011;66600;48.378;9.948;2023-07-09T02:10:25;8.77;;;6.20;;
77495;SDS011;66600;48.378;9.948;2023-07-09T02:12:51;11.00;;;6.25;;
77495;SDS011;66600;48.378;9.948;2023-07-09T02:15:16;9.75;;;6.35;;
77495;SDS011;66600;48.378;9.948;2023-07-09T02:17:42;11.77;;;6.53;;
77495;SDS011;66600;48.378;9.948;2023-07-09T02:20:08;9.70;;;6.60;;
77495;SDS011;66600;48.378;9.948;2023-07-09T02:22:36;10.88;;;6.28;;
77495;SDS011;66600;48.378;9.948;2023-07-09T02:25:03;9.90;;;6.53;;
77495;SDS011;66600;48.378;9.948;2023-07-09T02:27:29;9.60;;;6.32;;
77495;SDS011;66600;48.378;9.948;2023-07-09T02:29:54;12.95;;;6.80;;
77495;SDS011;66600;48.378;9.948;2023-07-09T02:32:22;8.32;;;5.80;;
77495;SDS011;66600;48.378;9.948;2023-07-09T02:34:49;10.00;;;5.82;;
77495;SDS011;66600;48.378;9.948;2023-07-09T02:37:18;8.60;;;5.30;;
77495;SDS011;66600;48.378;9.948;2023-07-09T02:39:47;9.45;;;5.30;;
77495;SDS011;66600;48.378;9.948;2023-07-09T02:42:14;10.13;;;5.93;;
77495;SDS011;66600;48.378;9.948;2023-07-09T02:44:40;9.15;;;5.43;;
77495;SDS011;66600;48.378;9.948;2023-07-09T02:47:06;8.68;;;5.82;;
77495;SDS011;66600;48.378;9.948;2023-07-09T02:49:32;11.40;;;5.82;;
77495;SDS011;66600;48.378;9.948;2023-07-09T02:51:57;7.90;;;5.43;;
77495;SDS011;66600;48.378;9.948;2023-07-09T02:54:23;8.68;;;5.70;;
77495;SDS011;66600;48.378;9.948;2023-07-09T02:56:48;9.60;;;5.85;;
77495;SDS011;66600;48.378;9.948;2023-07-09T02:59:13;7.85;;;5.43;;
77495;SDS011;66600;48.378;9.948;2023-07-09T03:01:39;8.10;;;5.28;;
77495;SDS011;66600;48.378;9.948;2023-07-09T03:04:04;12.15;;;5.55;;
77495;SDS011;66600;48.378;9.948;2023-07-09T03:06:30;10.57;;;5.03;;
77495;SDS011;66600;48.378;9.948;2023-07-09T03:08:59;8.23;;;5.38;;
77495;SDS011;66600;48.378;9.948;2023-07-09T03:11:27;7.80;;;5.55;;
77495;SDS011;66600;48.378;9.948;2023-07-09T03:13:54;9.60;;;5.57;;
77495;SDS011;66600;48.378;9.948;2023-07-09T03:16:20;12.30;;;6.55;;
77495;SDS011;66600;48.378;9.948;2023-07-09T03:18:47;8.85;;;6.38;;
77495;SDS011;66600;48.378;9.948;2023-07-09T03:21:12;12.93;;;7.20;;
77495;SDS011;66600;48.378;9.948;2023-07-09T03:23:37;11.13;;;7.28;;
77495;SDS011;66600;48.378;9.948;2023-07-09T03:26:03;12.57;;;7.57;;
77495;SDS011;66600;48.378;9.948;2023-07-09T03:28:30;10.18;;;6.82;;
77495;SDS011;66600;48.378;9.948;2023-07-09T03:30:56;11.43;;;6.57;;
77495;SDS011;66600;48.378;9.948;2023-07-09T03:33:22;11.77;;;6.80;;
77495;SDS011;66600;48.378;9.948;2023-07-09T03:35:49;9.85;;;6.78;;
77495;SDS011;66600;48.378;9.948;2023-07-09T03:38:15;11.20;;;7.05;;
77495;SDS011;66600;48.378;9.948;2023-07-09T03:40:41;10.40;;;7.00;;
77495;SDS011;66600;48.378;9.948;2023-07-09T03:43:06;11.05;;;7.15;;
77495;SDS011;66600;48.378;9.948;2023-07-09T03:45:34;12.32;;;7.05;;
77495;SDS011;66600;48.378;9.948;2023-07-09T03:48:00;9.20;;;6.93;;
77495;SDS011;66600;48.378;9.948;2023-07-09T03:50:26;9.27;;;6.30;;
77495;SDS011;66600;48.378;9.948;2023-07-09T03:52:51;11.18;;;7.05;;
77495;SDS011;66600;48.378;9.948;2023-07-09T03:55:17;9.70;;;6.30;;
77495;SDS011;66600;48.378;9.948;2023-07-09T03:57:42;10.93;;;6.35;;
77495;SDS011;66600;48.378;9.948;2023-07-09T04:00:08;12.13;;;6.20;;
77495;SDS011;66600;48.378;9.948;2023-07-09T04:02:35;12.65;;;6.45;;
77495;SDS011;66600;48.378;9.948;2023-07-09T04:05:01;9.75;;;6.40;;
77495;SDS011;66600;48.378;9.948;2023-07-09T04:07:26;9.85;;;6.00;;
77495;SDS011;66600;48.378;9.948;2023-07-09T04:09:51;10.90;;;7.07;;
77495;SDS011;66600;48.378;9.948;2023-07-09T04:12:17;10.65;;;6.78;;
77495;SDS011;66600;48.378;9.948;2023-07-09T04:14:42;11.88;;;6.50;;
77495;SDS011;66600;48.378;9.948;2023-07-09T04:17:07;10.90;;;7.03;;
77495;SDS011;66600;48.378;9.948;2023-07-09T04:19:33;12.52;;;7.20;;
77495;SDS011;66600;48.378;9.948;2023-07-09T04:21:58;11.23;;;7.68;;
77495;SDS011;66600;48.378;9.948;2023-07-09T04:24:23;10.55;;;8.23;;
77495;SDS011;66600;48.378;9.948;2023-07-09T04:26:49;12.57;;;8.32;;
77495;SDS011;66600;48.378;9.948;2023-07-09T04:29:14;12.27;;;8.35;;
77495;SDS011;66600;48.378;9.948;2023-07-09T04:31:40;15.02;;;8.50;;
77495;SDS011;66600;48.378;9.948;2023-07-09T04:34:05;11.57;;;7.75;;
77495;SDS011;66600;48.378;9.948;2023-07-09T04:36:31;11.45;;;6.95;;
77495;SDS011;66600;48.378;9.948;2023-07-09T04:38:57;9.65;;;6.70;;
77495;SDS011;66600;48.378;9.948;2023-07-09T04:41:22;10.48;;;6.63;;
77495;SDS011;66600;48.378;9.948;2023-07-09T04:43:48;10.07;;;6.45;;
77495;SDS011;66600;48.378;9.948;2023-07-09T04:46:13;11.25;;;6.93;;
77495;SDS011;66600;48.378;9.948;2023-07-09T04:48:39;9.02;;;6.28;;
77495;SDS011;66600;48.378;9.948;2023-07-09T04:51:04;10.57;;;6.10;;
77495;SDS011;66600;48.378;9.948;2023-07-09T04:53:29;10.43;;;6.85;;
77495;SDS011;66600;48.378;9.948;2023-07-09T04:55:55;9.07;;;5.97;;
77495;SDS011;66600;48.378;9.948;2023-07-09T04:58:20;11.30;;;6.20;;
77495;SDS011;66600;48.378;9.948;2023-07-09T05:00:46;8.10;;;6.18;;
77495;SDS011;66600;48.378;9.948;2023-07-09T05:03:11;9.30;;;6.38;;
77495;SDS011;66600;48.378;9.948;2023-07-09T05:05:46;11.95;;;7.00;;
77495;SDS011;66600;48.378;9.948;2023-07-09T05:08:12;8.60;;;6.50;;
77495;SDS011;66600;48.378;9.948;2023-07-09T05:10:45;10.73;;;6.95;;
77495;SDS011;66600;48.378;9.948;2023-07-09T05:13:11;10.70;;;6.93;;
77495;SDS011;66600;48.378;9.948;2023-07-09T05:15:41;9.82;;;6.30;;
77495;SDS011;66600;48.378;9.948;2023-07-09T05:18:12;10.55;;;7.10;;
77495;SDS011;66600;48.378;9.948;2023-07-09T05:20:39;11.70;;;6.38;;
77495;SDS011;66600;48.378;9.948;2023-07-09T05:23:04;10.75;;;6.60;;
77495;SDS011;66600;48.378;9.948;2023-07-09T05:25:30;10.55;;;6.35;;
77495;SDS011;66600;48.378;9.948;2023-07-09T05:27:55;10.75;;;6.50;;
77495;SDS011;66600;48.378;9.948;2023-07-09T05:30:20;10.32;;;6.38;;
77495;SDS011;66600;48.378;9.948;2023-07-09T05:32:46;11.10;;;6.25;;
77495;SDS011;66600;48.378;9.948;2023-07-09T05:35:11;12.23;;;6.63;;
77495;SDS011;66600;48.378;9.948;2023-07-09T05:37:37;10.80;;;5.85;;
77495;SDS011;66600;48.378;9.948;2023-07-09T05:40:04;9.68;;;5.70;;
77495;SDS011;66600;48.378;9.948;2023-07-09T05:42:30;8.68;;;5.65;;
77495;SDS011;66600;48.378;9.948;2023-07-09T05:44:56;10.52;;;5.63;;
77495;SDS011;66600;48.378;9.948;2023-07-09T05:47:21;7.22;;;5.32;;
77495;SDS011;66600;48.378;9.948;2023-07-09T05:49:47;7.78;;;5.50;;
77495;SDS011;66600;48.378;9.948;2023-07-09T05:52:14;8.88;;;5.47;;
77495;SDS011;66600;48.378;9.948;2023-07-09T05:54:40;7.78;;;5.30;;
77495;SDS011;66600;48.378;9.948;2023-07-09T05:57:05;8.65;;;5.78;;
77495;SDS011;66600;48.378;9.948;2023-07-09T05:59:31;9.07;;;5.57;;
77495;SDS011;66600;48.378;9.948;2023-07-09T06:01:56;8.63;;;5.93;;
77495;SDS011;66600;48.378;9.948;2023-07-09T06:04:22;8.23;;;5.30;;
77495;SDS011;66600;48.378;9.948;2023-07-09T06:06:47;8.60;;;5.88;;
77495;SDS011;66600;48.378;9.948;2023-07-09T06:09:12;8.27;;;5.80;;
77495;SDS011;66600;48.378;9.948;2023-07-09T06:11:38;9.82;;;5.65;;
77495;SDS011;66600;48.378;9.948;2023-07-09T06:14:03;8.52;;;5.45;;
77495;SDS011;66600;48.378;9.948;2023-07-09T06:16:28;10.05;;;5.70;;
77495;SDS011;66600;48.378;9.948;2023-07-09T06:18:54;7.97;;;5.43;;
77495;SDS011;66600;48.378;9.948;2023-07-09T06:21:19;9.00;;;5.80;;
77495;SDS011;66600;48.378;9.948;2023-07-09T06:23:45;10.63;;;5.63;;
77495;SDS011;66600;48.378;9.948;2023-07-09T06:26:11;11.00;;;5.63;;
77495;SDS011;66600;48.378;9.948;2023-07-09T06:28:36;7.47;;;5.35;;
77495;SDS011;66600;48.378;9.948;2023-07-09T06:31:01;10.35;;;5.80;;
77495;SDS011;66600;48.378;9.948;2023-07-09T06:33:27;10.85;;;5.57;;
77495;SDS011;66600;48.378;9.948;2023-07-09T06:35:54;8.55;;;5.53;;
77495;SDS011;66600;48.378;9.948;2023-07-09T06:38:24;9.75;;;5.15;;
77495;SDS011;66600;48.378;9.948;2023-07-09T06:40:49;10.85;;;5.05;;
77495;SDS011;66600;48.378;9.948;2023-07-09T06:43:15;9.18;;;5.45;;
77495;SDS011;66600;48.378;9.948;2023-07-09T06:46:00;8.95;;;4.90;;
77495;SDS011;66600;48.378;9.948;2023-07-09T06:48:26;8.35;;;5.43;;
77495;SDS011;66600;48.378;9.948;2023-07-09T06:50:54;7.70;;;5.28;;
77495;SDS011;66600;48.378;9.948;2023-07-09T06:53:20;7.63;;;5.22;;
77495;SDS011;66600;48.378;9.948;2023-07-09T06:55:46;8.05;;;5.65;;
77495;SDS011;66600;48.378;9.948;2023-07-09T06:58:15;7.13;;;4.63;;
77495;SDS011;66600;48.378;9.948;2023-07-09T07:00:42;8.20;;;5.30;;
77495;SDS011;66600;48.378;9.948;2023-07-09T07:03:08;7.53;;;5.07;;
77495;SDS011;66600;48.378;9.948;2023-07-09T07:05:34;11.40;;;4.80;;
77495;SDS011;66600;48.378;9.948;2023-07-09T07:08:00;8.90;;;4.32;;
77495;SDS011;66600;48.378;9.948;2023-07-09T07:10:26;10.48;;;5.15;;
77495;SDS011;66600;48.378;9.948;2023-07-09T07:12:51;8.25;;;4.70;;
77495;SDS011;66600;48.378;9.948;2023-07-09T07:15:17;8.32;;;4.85;;
77495;SDS011;66600;48.378;9.948;2023-07-09T07:17:43;7.72;;;4.47;;
77495;SDS011;66600;48.378;9.948;2023-07-09T07:20:09;9.13;;;5.20;;
77495;SDS011;66600;48.378;9.948;2023-07-09T07:22:36;7.40;;;5.03;;
77495;SDS011;66600;48.378;9.948;2023-07-09T07:25:02;7.90;;;4.55;;
77495;SDS011;66600;48.378;9.948;2023-07-09T07:27:28;8.48;;;4.70;;
77495;SDS011;66600;48.378;9.948;2023-07-09T07:29:54;7.82;;;4.85;;
77495;SDS011;66600;48.378;9.948;2023-07-09T07:32:19;7.78;;;4.80;;
77495;SDS011;66600;48.378;9.948;2023-07-09T07:34:45;8.70;;;4.43;;
77495;SDS011;66600;48.378;9.948;2023-07-09T07:37:11;9.27;;;4.85;;
77495;SDS011;66600;48.378;9.948;2023-07-09T07:39:36;7.55;;;4.70;;
77495;SDS011;66600;48.378;9.948;2023-07-09T07:42:02;8.00;;;4.65;;
77495;SDS011;66600;48.378;9.948;2023-07-09T07:44:27;8.00;;;4.63;;
77495;SDS011;66600;48.378;9.948;2023-07-09T07:46:53;8.30;;;4.80;;
77495;SDS011;66600;48.378;9.948;2023-07-09T07:51:47;8.27;;;4.72;;
77495;SDS011;66600;48.378;9.948;2023-07-09T07:54:13;8.48;;;4.65;;
77495;SDS011;66600;48.378;9.948;2023-07-09T07:56:39;7.82;;;4.60;;
77495;SDS011;66600;48.378;9.948;2023-07-09T07:59:06;7.45;;;4.85;;
77495;SDS011;66600;48.378;9.948;2023-07-09T08:01:32;9.20;;;4.65;;
77495;SDS011;66600;48.378;9.948;2023-07-09T08:04:00;7.28;;;4.63;;
77495;SDS011;66600;48.378;9.948;2023-07-09T08:06:25;8.75;;;4.65;;
77495;SDS011;66600;48.378;9.948;2023-07-09T08:08:50;8.88;;;4.57;;
77495;SDS011;66600;48.378;9.948;2023-07-09T08:11:16;8.18;;;5.25;;
77495;SDS011;66600;48.378;9.948;2023-07-09T08:13:41;7.28;;;3.88;;
77495;SDS011;66600;48.378;9.948;2023-07-09T08:16:07;7.28;;;4.53;;
77495;SDS011;66600;48.378;9.948;2023-07-09T08:18:33;8.30;;;4.45;;
77495;SDS011;66600;48.378;9.948;2023-07-09T08:20:59;12.30;;;4.32;;
77495;SDS011;66600;48.378;9.948;2023-07-09T08:23:25;6.07;;;4.22;;
77495;SDS011;66600;48.378;9.948;2023-07-09T08:25:57;7.20;;;4.40;;
77495;SDS011;66600;48.378;9.948;2023-07-09T08:28:24;7.22;;;3.70;;
77495;SDS011;66600;48.378;9.948;2023-07-09T08:30:53;6.28;;;4.00;;
77495;SDS011;66600;48.378;9.948;2023-07-09T08:33:20;6.18;;;4.03;;
77495;SDS011;66600;48.378;9.948;2023-07-09T08:35:45;6.72;;;3.67;;
77495;SDS011;66600;48.378;9.948;2023-07-09T08:38:10;6.65;;;4.07;;
77495;SDS011;66600;48.378;9.948;2023-07-09T08:40:39;6.60;;;3.70;;
77495;SDS011;66600;48.378;9.948;2023-07-09T08:43:13;7.72;;;4.38;;
77495;SDS011;66600;48.378;9.948;2023-07-09T08:46:07;7.45;;;4.00;;
77495;SDS011;66600;48.378;9.948;2023-07-09T08:48:49;6.22;;;3.63;;
77495;SDS011;66600;48.378;9.948;2023-07-09T08:51:19;7.97;;;3.47;;
77495;SDS011;66600;48.378;9.948;2023-07-09T08:53:58;6.65;;;4.05;;
77495;SDS011;66600;48.378;9.948;2023-07-09T08:56:25;6.18;;;3.60;;
77495;SDS011;66600;48.378;9.948;2023-07-09T08:58:53;7.45;;;3.97;;
77495;SDS011;66600;48.378;9.948;2023-07-09T09:01:23;5.80;;;3.60;;
77495;SDS011;66600;48.378;9.948;2023-07-09T09:04:03;6.15;;;3.60;;
77495;SDS011;66600;48.378;9.948;2023-07-09T09:06:38;5.35;;;3.40;;
77495;SDS011;66600;48.378;9.948;2023-07-09T09:14:23;5.72;;;3.60;;
77495;SDS011;66600;48.378;9.948;2023-07-09T09:16:55;6.50;;;3.40;;
77495;SDS011;66600;48.378;9.948;2023-07-09T09:19:29;6.75;;;3.65;;
77495;SDS011;66600;48.378;9.948;2023-07-09T09:22:08;7.10;;;3.65;;
77495;SDS011;66600;48.378;9.948;2023-07-09T09:24:38;9.00;;;3.53;;
77495;SDS011;66600;48.378;9.948;2023-07-09T09:27:12;4.85;;;3.50;;
77495;SDS011;66600;48.378;9.948;2023-07-09T09:29:38;6.03;;;3.47;;
77495;SDS011;66600;48.378;9.948;2023-07-09T09:32:11;8.68;;;3.72;;
77495;SDS011;66600;48.378;9.948;2023-07-09T09:34:47;6.38;;;3.75;;
77495;SDS011;66600;48.378;9.948;2023-07-09T09:37:15;7.88;;;3.80;;
77495;SDS011;66600;48.378;9.948;2023-07-09T09:39:52;6.55;;;3.70;;
77495;SDS011;66600;48.378;9.948;2023-07-09T09:42:17;6.80;;;3.58;;
77495;SDS011;66600;48.378;9.948;2023-07-09T09:44:43;5.88;;;3.35;;
77495;SDS011;66600;48.378;9.948;2023-07-09T09:47:10;8.32;;;4.18;;
77495;SDS011;66600;48.378;9.948;2023-07-09T09:49:42;6.28;;;3.63;;
77495;SDS011;66600;48.378;9.948;2023-07-09T09:52:15;5.35;;;3.67;;
77495;SDS011;66600;48.378;9.948;2023-07-09T09:54:53;8.60;;;3.72;;
77495;SDS011;66600;48.378;9.948;2023-07-09T09:57:23;6.00;;;3.53;;
77495;SDS011;66600;48.378;9.948;2023-07-09T09:59:49;6.25;;;3.42;;
77495;SDS011;66600;48.378;9.948;2023-07-09T10:02:19;5.57;;;3.20;;
77495;SDS011;66600;48.378;9.948;2023-07-09T10:04:47;6.53;;;3.40;;
77495;SDS011;66600;48.378;9.948;2023-07-09T10:07:21;5.95;;;3.63;;
77495;SDS011;66600;48.378;9.948;2023-07-09T10:09:52;4.82;;;3.13;;
77495;SDS011;66600;48.378;9.948;2023-07-09T10:31:10;5.90;;;2.97;;
77495;SDS011;66600;48.378;9.948;2023-07-09T10:33:41;4.82;;;3.22;;
77495;SDS011;66600;48.378;9.948;2023-07-09T10:36:29;6.35;;;3.28;;
77495;SDS011;66600;48.378;9.948;2023-07-09T10:39:22;5.10;;;2.90;;
77495;SDS011;66600;48.378;9.948;2023-07-09T10:41:51;5.88;;;2.83;;
77495;SDS011;66600;48.378;9.948;2023-07-09T10:44:27;4.50;;;2.50;;
77495;SDS011;66600;48.378;9.948;2023-07-09T10:47:00;5.93;;;3.55;;
77495;SDS011;66600;48.378;9.948;2023-07-09T10:49:37;6.32;;;3.47;;
77495;SDS011;66600;48.378;9.948;2023-07-09T10:52:06;6.28;;;3.10;;
77495;SDS011;66600;48.378;9.948;2023-07-09T10:54:46;5.55;;;2.60;;
77495;SDS011;66600;48.378;9.948;2023-07-09T10:57:25;6.05;;;2.60;;
77495;SDS011;66600;48.378;9.948;2023-07-09T10:59:55;6.20;;;2.67;;
77495;SDS011;66600;48.378;9.948;2023-07-09T11:02:24;5.45;;;2.40;;
77495;SDS011;66600;48.378;9.948;2023-07-09T11:04:58;6.90;;;2.85;;
77495;SDS011;66600;48.378;9.948;2023-07-09T11:09:54;9.30;;;2.97;;
77495;SDS011;66600;48.378;9.948;2023-07-09T11:14:53;4.57;;;2.40;;
77495;SDS011;66600;48.378;9.948;2023-07-09T11:17:24;6.05;;;2.65;;
77495;SDS011;66600;48.378;9.948;2023-07-09T11:19:56;5.72;;;2.78;;
77495;SDS011;66600;48.378;9.948;2023-07-09T11:22:35;6.60;;;2.70;;
77495;SDS011;66600;48.378;9.948;2023-07-09T11:27:34;5.32;;;2.67;;
77495;SDS011;66600;48.378;9.948;2023-07-09T11:30:21;6.13;;;2.83;;
77495;SDS011;66600;48.378;9.948;2023-07-09T11:32:52;4.53;;;2.70;;
77495;SDS011;66600;48.378;9.948;2023-07-09T11:35:24;4.90;;;2.67;;
77495;SDS011;66600;48.378;9.948;2023-07-09T11:37:51;5.65;;;2.80;;
77495;SDS011;66600;48.378;9.948;2023-07-09T11:40:18;5.35;;;2.70;;
77495;SDS011;66600;48.378;9.948;2023-07-09T11:42:54;6.07;;;3.17;;
77495;SDS011;66600;48.378;9.948;2023-07-09T11:45:26;8.15;;;4.40;;
77495;SDS011;66600;48.378;9.948;2023-07-09T11:47:55;6.20;;;3.20;;
77495;SDS011;66600;48.378;9.948;2023-07-09T11:50:35;4.88;;;2.80;;
77495;SDS011;66600;48.378;9.948;2023-07-09T11:55:53;5.82;;;3.17;;
77495;SDS011;66600;48.378;9.948;2023-07-09T11:58:18;6.75;;;3.00;;
77495;SDS011;66600;48.378;9.948;2023-07-09T12:00:50;5.75;;;3.08;;
77495;SDS011;66600;48.378;9.948;2023-07-09T12:06:05;4.95;;;2.80;;
77495;SDS011;66600;48.378;9.948;2023-07-09T12:08:39;5.77;;;3.50;;
77495;SDS011;66600;48.378;9.948;2023-07-09T12:11:17;5.57;;;2.70;;
77495;SDS011;66600;48.378;9.948;2023-07-09T12:13:52;7.45;;;3.10;;
77495;SDS011;66600;48.378;9.948;2023-07-09T12:16:23;5.32;;;3.00;;
77495;SDS011;66600;48.378;9.948;2023-07-09T12:18:50;5.28;;;3.00;;
77495;SDS011;66600;48.378;9.948;2023-07-09T12:21:16;5.18;;;2.95;;
77495;SDS011;66600;48.378;9.948;2023-07-09T12:23:41;6.40;;;2.85;;
77495;SDS011;66600;48.378;9.948;2023-07-09T12:26:10;5.90;;;2.80;;
77495;SDS011;66600;48.378;9.948;2023-07-09T12:28:38;5.80;;;3.00;;
77495;SDS011;66600;48.378;9.948;2023-07-09T12:31:04;6.88;;;2.90;;
77495;SDS011;66600;48.378;9.948;2023-07-09T12:33:29;5.00;;;2.67;;
77495;SDS011;66600;48.378;9.948;2023-07-09T12:35:58;7.38;;;3.55;;
77495;SDS011;66600;48.378;9.948;2023-07-09T12:38:27;6.10;;;2.88;;
77495;SDS011;66600;48.378;9.948;2023-07-09T12:40:55;7.18;;;3.20;;
77495;SDS011;66600;48.378;9.948;2023-07-09T12:43:28;6.95;;;3.08;;
77495;SDS011;66600;48.378;9.948;2023-07-09T12:45:56;4.88;;;3.10;;
77495;SDS011;66600;48.378;9.948;2023-07-09T12:48:24;7.10;;;3.40;;
77495;SDS011;66600;48.378;9.948;2023-07-09T12:50:56;6.00;;;2.70;;
77495;SDS011;66600;48.378;9.948;2023-07-09T12:53:23;7.55;;;3.25;;
77495;SDS011;66600;48.378;9.948;2023-07-09T12:55:56;5.20;;;3.53;;
77495;SDS011;66600;48.378;9.948;2023-07-09T12:58:27;7.75;;;3.30;;
77495;SDS011;66600;48.378;9.948;2023-07-09T13:00:55;9.05;;;3.78;;
77495;SDS011;66600;48.378;9.948;2023-07-09T13:03:24;7.93;;;3.50;;
77495;SDS011;66600;48.378;9.948;2023-07-09T13:08:24;7.53;;;3.00;;
77495;SDS011;66600;48.378;9.948;2023-07-09T13:10:50;6.00;;;3.30;;
77495;SDS011;66600;48.378;9.948;2023-07-09T13:13:17;5.43;;;3.00;;
77495;SDS011;66600;48.378;9.948;2023-07-09T13:15:49;5.70;;;3.08;;
77495;SDS011;66600;48.378;9.948;2023-07-09T13:18:21;6.50;;;3.63;;
77495;SDS011;66600;48.378;9.948;2023-07-09T13:20:46;6.45;;;3.15;;
77495;SDS011;66600;48.378;9.948;2023-07-09T13:23:16;5.25;;;2.95;;
77495;SDS011;66600;48.378;9.948;2023-07-09T13:25:46;5.88;;;3.03;;
77495;SDS011;66600;48.378;9.948;2023-07-09T13:28:19;6.07;;;3.05;;
77495;SDS011;66600;48.378;9.948;2023-07-09T13:30:52;6.28;;;3.80;;
77495;SDS011;66600;48.378;9.948;2023-07-09T13:33:33;6.05;;;3.30;;
77495;SDS011;66600;48.378;9.948;2023-07-09T13:35:58;5.60;;;3.20;;
77495;SDS011;66600;48.378;9.948;2023-07-09T13:38:24;7.38;;;3.05;;
77495;SDS011;66600;48.378;9.948;2023-07-09T13:40:54;7.95;;;3.60;;
77495;SDS011;66600;48.378;9.948;2023-07-09T13:43:26;5.45;;;3.00;;
77495;SDS011;66600;48.378;9.948;2023-07-09T13:45:54;8.63;;;3.17;;
77495;SDS011;66600;48.378;9.948;2023-07-09T13:48:22;7.17;;;2.93;;
77495;SDS011;66600;48.378;9.948;2023-07-09T13:50:49;5.60;;;2.93;;
77495;SDS011;66600;48.378;9.948;2023-07-09T13:53:19;6.40;;;3.15;;
77495;SDS011;66600;48.378;9.948;2023-07-09T13:55:49;5.82;;;3.50;;
77495;SDS011;66600;48.378;9.948;2023-07-09T13:58:16;6.95;;;3.15;;
77495;SDS011;66600;48.378;9.948;2023-07-09T14:00:43;5.20;;;3.03;;
77495;SDS011;66600;48.378;9.948;2023-07-09T14:03:28;5.68;;;3.47;;
77495;SDS011;66600;48.378;9.948;2023-07-09T14:05:56;5.88;;;3.30;;
77495;SDS011;66600;48.378;9.948;2023-07-09T14:08:21;6.70;;;3.40;;
77495;SDS011;66600;48.378;9.948;2023-07-09T14:10:47;7.25;;;3.40;;
77495;SDS011;66600;48.378;9.948;2023-07-09T14:13:15;5.25;;;3.20;;
77495;SDS011;66600;48.378;9.948;2023-07-09T14:15:48;5.65;;;3.08;;
77495;SDS011;66600;48.378;9.948;2023-07-09T14:18:18;8.15;;;3.70;;
77495;SDS011;66600;48.378;9.948;2023-07-09T14:20:45;5.60;;;3.60;;
77495;SDS011;66600;48.378;9.948;2023-07-09T14:23:12;6.57;;;3.40;;
77495;SDS011;66600;48.378;9.948;2023-07-09T14:25:39;6.45;;;2.90;;
77495;SDS011;66600;48.378;9.948;2023-07-09T14:28:10;4.85;;;3.22;;
77495;SDS011;66600;48.378;9.948;2023-07-09T14:30:38;6.20;;;3.10;;
77495;SDS011;66600;48.378;9.948;2023-07-09T14:33:04;10.57;;;3.88;;
77495;SDS011;66600;48.378;9.948;2023-07-09T14:35:33;5.45;;;2.95;;
77495;SDS011;66600;48.378;9.948;2023-07-09T14:38:01;5.65;;;3.03;;
77495;SDS011;66600;48.378;9.948;2023-07-09T14:40:26;4.72;;;3.00;;
77495;SDS011;66600;48.378;9.948;2023-07-09T14:42:51;6.40;;;2.97;;
77495;SDS011;66600;48.378;9.948;2023-07-09T14:47:45;6.00;;;3.40;;
77495;SDS011;66600;48.378;9.948;2023-07-09T14:50:11;5.07;;;3.25;;
77495;SDS011;66600;48.378;9.948;2023-07-09T14:52:36;6.60;;;2.75;;
77495;SDS011;66600;48.378;9.948;2023-07-09T14:55:02;7.78;;;3.30;;
77495;SDS011;66600;48.378;9.948;2023-07-09T14:57:28;6.13;;;3.40;;
77495;SDS011;66600;48.378;9.948;2023-07-09T14:59:55;6.22;;;3.00;;
77495;SDS011;66600;48.378;9.948;2023-07-09T15:04:53;6.35;;;3.25;;
77495;SDS011;66600;48.378;9.948;2023-07-09T15:07:18;6.70;;;3.35;;
77495;SDS011;66600;48.378;9.948;2023-07-09T15:09:43;4.93;;;2.75;;
77495;SDS011;66600;48.378;9.948;2023-07-09T15:12:19;6.90;;;2.78;;
77495;SDS011;66600;48.378;9.948;2023-07-09T15:14:47;8.20;;;3.30;;
77495;SDS011;66600;48.378;9.948;2023-07-09T15:17:13;7.72;;;3.40;;
77495;SDS011;66600;48.378;9.948;2023-07-09T15:19:39;4.68;;;3.30;;
77495;SDS011;66600;48.378;9.948;2023-07-09T15:22:05;7.22;;;3.25;;
77495;SDS011;66600;48.378;9.948;2023-07-09T15:24:35;7.43;;;3.45;;
77495;SDS011;66600;48.378;9.948;2023-07-09T15:27:00;5.57;;;3.17;;
77495;SDS011;66600;48.378;9.948;2023-07-09T15:29:27;8.02;;;4.40;;
77495;SDS011;66600;48.378;9.948;2023-07-09T15:31:53;4.43;;;2.97;;
77495;SDS011;66600;48.378;9.948;2023-07-09T15:34:19;6.00;;;3.30;;
77495;SDS011;66600;48.378;9.948;2023-07-09T15:36:45;5.70;;;3.30;;
77495;SDS011;66600;48.378;9.948;2023-07-09T15:39:15;5.72;;;2.90;;
77495;SDS011;66600;48.378;9.948;2023-07-09T15:41:41;5.32;;;3.33;;
77495;SDS011;66600;48.378;9.948;2023-07-09T15:44:10;7.50;;;3.30;;